»·PEaware :: DLH250 EDDF-LOWI

DLH250 :: EDDF-LOWI

FLIGHT INFORMATION

Flight Status: Arrived
Operator:
Lufthansa
More flights by this operator :: More flights under this callsign
Pilot: Andrew J. (13363)
Aircraft: AIRBUS A319
(A319)
More flights by this aircraft type
Origin: EDDF Frankfurt/Main
Germany
Destination: LOWI Innsbruck
Austria
More flights between these airports :: More routes between these airports
Route: CINDY1D CINDY Z74 LAMPU Z54 NOMBO Y161 MANAL M736 TULSI TULSI3A
File this flight plan on PilotEdge
Remarks: RMK / SIMBRIEF
Altitude:
(Current/Filed)
23,000ft
Speed:
(Current/Filed)
447kts
Departed: 21-Sep-20 10:05 AM
Arrived: 21-Sep-20 10:53 AM
Distance/Time
Traveled:
200nm/0:47
Distance/Time
To Go:
Arrived

Flight Plot

Page will automatically refresh every two minutes.

Flight plan parsing failed; only flown route is shown


Map Options




Map Legend


Flown Route
Filed Route
Departure Airport
Arrival Airport
Navaid (VOR, NDB)
Fix

Horizontal Profiles

Position Reports

Time Latitude Longitude Heading Altitude Ground
Speed
21-Sep-20 09:44 50.048530 8.569405 294 370ft 0kts
21-Sep-20 09:45 50.048530 8.569405 294 370ft 0kts
21-Sep-20 09:46 50.048530 8.569405 294 370ft 0kts
21-Sep-20 09:47 50.048530 8.569406 294 370ft 0kts
21-Sep-20 09:48 50.048525 8.569423 294 370ft 0kts
21-Sep-20 09:49 50.048492 8.569535 294 370ft 0kts
21-Sep-20 09:51 50.048375 8.569935 294 370ft 1kts
21-Sep-20 09:52 50.048179 8.570597 295 370ft 0kts
21-Sep-20 09:53 50.048181 8.570590 293 370ft 0kts
21-Sep-20 09:54 50.047963 8.570342 201 370ft 0kts
21-Sep-20 09:55 50.047637 8.570135 204 370ft 3kts
21-Sep-20 09:56 50.046076 8.568993 205 370ft 9kts
21-Sep-20 09:57 50.042835 8.568047 203 370ft 14kts
21-Sep-20 09:58 50.041169 8.562392 250 370ft 16kts
21-Sep-20 09:59 50.039440 8.555106 250 370ft 19kts
21-Sep-20 10:00 50.037490 8.547025 249 370ft 20kts
21-Sep-20 10:01 50.035503 8.538510 250 370ft 21kts
21-Sep-20 10:02 50.032840 8.534807 126 370ft 10kts
21-Sep-20 10:03 50.032858 8.535601 68 370ft 0kts
21-Sep-20 10:04 50.032868 8.535643 69 370ft 1kts
21-Sep-20 10:05 50.043564 8.581353 72 1411ft 166kts
21-Sep-20 10:06 50.058071 8.651148 70 3933ft 194kts
21-Sep-20 10:06 50.071849 8.727439 97 5895ft 244kts
21-Sep-20 10:08 50.021090 8.760969 203 9264ft 255kts
21-Sep-20 10:12 50.064848 8.744341 134 4589ft 225kts
21-Sep-20 10:12 50.011141 8.751034 187 7335ft 248kts
21-Sep-20 10:13 49.937630 8.724978 192 10102ft 292kts
21-Sep-20 10:14 49.858147 8.719521 153 11851ft 348kts
21-Sep-20 10:15 49.807251 8.858352 106 13412ft 410kts
21-Sep-20 10:16 49.773689 9.030812 106 16283ft 424kts
21-Sep-20 10:17 49.731980 9.205723 121 18699ft 439kts
21-Sep-20 10:18 49.652016 9.354193 130 20814ft 454kts
21-Sep-20 10:19 49.551168 9.475397 147 22668ft 468kts
21-Sep-20 10:20 49.438297 9.578013 147 22999ft 471kts
21-Sep-20 10:21 49.328840 9.687324 139 23000ft 469kts
21-Sep-20 10:22 49.235520 9.826820 134 23000ft 468kts
21-Sep-20 10:23 49.143239 9.967348 134 23000ft 468kts
21-Sep-20 10:24 49.050482 10.106869 135 23001ft 469kts
21-Sep-20 10:25 48.954179 10.242399 136 23000ft 469kts
21-Sep-20 10:26 48.857877 10.377902 136 23000ft 469kts
21-Sep-20 10:27 48.765846 10.519436 132 23001ft 468kts
21-Sep-20 10:28 48.676061 10.662803 132 23001ft 468kts
21-Sep-20 10:29 48.585833 10.806278 132 23000ft 468kts
21-Sep-20 10:30 48.495998 10.949908 132 23000ft 468kts
21-Sep-20 10:31 48.405060 11.091745 133 23000ft 468kts
21-Sep-20 10:32 48.313916 11.233251 133 23000ft 468kts
21-Sep-20 10:33 48.220314 11.369310 136 23001ft 469kts
21-Sep-20 10:34 48.123898 11.499134 136 22303ft 464kts
21-Sep-20 10:35 48.028369 11.627305 136 20914ft 455kts
21-Sep-20 10:36 47.935863 11.751104 137 18262ft 434kts
21-Sep-20 10:37 47.825901 11.796472 181 15694ft 419kts
21-Sep-20 10:38 47.717307 11.791127 174 13316ft 375kts
21-Sep-20 10:39 47.634997 11.825120 158 11407ft 294kts
21-Sep-20 10:40 47.562110 11.866368 158 10610ft 268kts
21-Sep-20 10:41 47.493990 11.904481 158 10112ft 243kts
21-Sep-20 10:42 47.440383 11.928920 185 9822ft 205kts
21-Sep-20 10:43 47.399669 11.873946 234 9651ft 195kts
21-Sep-20 10:44 47.371137 11.805129 246 9196ft 203kts
21-Sep-20 10:45 47.350018 11.728135 246 7820ft 197kts
21-Sep-20 10:46 47.329772 11.655146 246 6576ft 188kts
21-Sep-20 10:47 47.310430 11.585802 246 5391ft 172kts
21-Sep-20 10:48 47.293386 11.524899 246 4294ft 155kts
21-Sep-20 10:49 47.277893 11.469706 247 3505ft 142kts
21-Sep-20 10:50 47.267586 11.413743 262 2786ft 141kts
21-Sep-20 10:51 47.261606 11.356868 260 1935ft 139kts
21-Sep-20 10:52 47.258588 11.337834 123 1911ft 11kts
21-Sep-20 10:53 47.258002 11.343277 81 1911ft 16kts
21-Sep-20 10:54 47.258747 11.350545 84 1911ft 13kts
21-Sep-20 10:55 47.258282 11.351743 171 1911ft 2kts
21-Sep-20 10:56 47.258282 11.351743 171 1911ft 2kts
21-Sep-20 10:57 47.258282 11.351743 171 1911ft 2kts
21-Sep-20 10:58 47.258282 11.351743 171 1911ft 2kts
21-Sep-20 10:59 47.258282 11.351743 171 1911ft 2kts
21-Sep-20 11:00 47.258282 11.351743 171 1911ft 2kts
21-Sep-20 11:01 47.258282 11.351743 171 1911ft 2kts
21-Sep-20 11:02 47.258282 11.351743 171 1911ft 2kts
21-Sep-20 11:03 47.258282 11.351743 171 1911ft 2kts
21-Sep-20 11:04 47.258282 11.351743 171 1911ft 2kts
21-Sep-20 11:05 47.258282 11.351743 171 1911ft 2kts
21-Sep-20 11:06 47.258282 11.351743 171 1911ft 2kts

Navigation Log

Ident Type
Flight plan parsing failed, navigation log unavailable